Time;durP1;ratioP1;P1;durP2;ratioP2;P2;SDS_P1;SDS_P2;PMS_P1;PMS_P2;Temp;Humidity;BMP_temperature;BMP_pressure;BME280_temperature;BME280_humidity;BME280_pressure;Samples;Min_cycle;Max_cycle;Signal;HPM_P1;HPM_P2
2021/01/03 00:01:03;;;;;;;10.90;4.90;;;;;;;26.04;31.98;95771.75;5040620;28;20043;-44
2021/01/03 00:03:29;;;;;;;10.25;4.72;;;;;;;-148.56;100.00;61375.16;5045277;28;20044;-45
2021/01/03 00:05:55;;;;;;;16.90;4.68;;;;;;;-148.56;100.00;61375.16;5027239;28;20701;-44
2021/01/03 00:08:21;;;;;;;13.18;4.70;;;;;;;-148.56;100.00;61375.16;5035689;28;20044;-48
2021/01/03 00:10:46;;;;;;;10.77;4.60;;;;;;;-148.56;100.00;61375.16;5035805;28;20033;-46
2021/01/03 00:13:13;;;;;;;13.23;4.70;;;;;;;-148.56;100.00;61375.16;5043108;28;20052;-46
2021/01/03 00:15:38;;;;;;;12.00;4.50;;;;;;;-148.56;100.00;61375.16;5040862;28;20048;-47
2021/01/03 00:18:04;;;;;;;9.45;4.38;;;;;;;-148.56;100.00;61375.16;5042319;28;20025;-48
2021/01/03 00:20:29;;;;;;;10.15;4.28;;;;;;;-148.56;100.00;61375.16;5045630;28;20427;-48
2021/01/03 00:22:55;;;;;;;10.32;4.22;;;;;;;-148.56;100.00;61375.16;5043209;28;20055;-47
2021/01/03 00:25:22;;;;;;;9.82;4.53;;;;;;;-148.56;100.00;61375.16;5044140;28;20045;-48
2021/01/03 00:27:50;;;;;;;8.88;3.83;;;;;;;-148.56;100.00;61375.16;5039480;28;20045;-49
2021/01/03 00:30:15;;;;;;;9.68;4.03;;;;;;;-148.56;100.00;61375.16;5037286;28;20029;-39
2021/01/03 00:32:41;;;;;;;9.25;4.10;;;;;;;-148.56;100.00;61375.16;5044791;28;20043;-48
2021/01/03 00:35:08;;;;;;;8.85;4.05;;;;;;;-148.56;100.00;61375.16;5042761;28;20107;-46
2021/01/03 00:37:34;;;;;;;12.18;4.00;;;;;;;-148.56;100.00;61375.16;5039659;28;20061;-49
2021/01/03 00:39:59;;;;;;;7.80;3.65;;;;;;;-148.56;100.00;61375.16;5044705;28;20045;-45
2021/01/03 00:42:26;;;;;;;7.97;3.60;;;;;;;-148.56;100.00;61375.16;5043781;28;20079;-49
2021/01/03 00:44:51;;;;;;;8.18;3.50;;;;;;;-148.56;100.00;61375.16;5040817;28;20492;-48
2021/01/03 00:47:18;;;;;;;7.78;4.03;;;;;;;-148.56;100.00;61375.16;5042348;28;20393;-47
2021/01/03 00:49:43;;;;;;;8.50;3.72;;;;;;;-148.56;100.00;61375.16;5044172;28;20076;-48
2021/01/03 00:52:09;;;;;;;8.80;3.95;;;;;;;-148.56;100.00;61375.16;5039075;28;20412;-46
2021/01/03 00:54:35;;;;;;;7.68;3.83;;;;;;;-148.56;100.00;61375.16;5043192;28;20526;-48
2021/01/03 00:57:00;;;;;;;7.85;3.60;;;;;;;-148.56;100.00;61375.16;5038994;28;20056;-47
2021/01/03 00:59:26;;;;;;;9.15;4.22;;;;;;;-148.56;100.00;61375.16;5043953;28;20033;-45
2021/01/03 01:01:51;;;;;;;7.00;3.67;;;;;;;-148.56;100.00;61375.16;5042427;28;20041;-46
2021/01/03 01:04:17;;;;;;;6.85;3.58;;;;;;;-148.56;100.00;61375.16;5036163;28;22067;-46
2021/01/03 01:06:43;;;;;;;8.65;3.58;;;;;;;-148.56;100.00;61375.16;5044825;28;20079;-43
2021/01/03 01:09:09;;;;;;;7.43;3.58;;;;;;;-148.56;100.00;61375.16;5042678;28;20523;-46
2021/01/03 01:11:38;;;;;;;9.35;3.60;;;;;;;-148.56;100.00;61375.16;5041840;28;20072;-44
2021/01/03 01:14:04;;;;;;;7.72;3.20;;;;;;;-148.56;100.00;61375.16;5055858;28;20564;-45
2021/01/03 01:16:30;;;;;;;6.53;3.40;;;;;;;-148.56;100.00;61375.16;5043328;28;20048;-44
2021/01/03 01:18:56;;;;;;;7.47;3.17;;;;;;;-148.56;100.00;61375.16;5049112;28;20124;-44
2021/01/03 01:21:22;;;;;;;7.10;3.22;;;;;;;-148.56;100.00;61375.16;5041401;28;20415;-46
2021/01/03 01:23:47;;;;;;;7.90;3.25;;;;;;;-148.56;100.00;61375.16;5048233;28;20503;-43
2021/01/03 01:26:13;;;;;;;8.68;3.40;;;;;;;-148.56;100.00;61375.16;5038404;28;20029;-47
2021/01/03 01:28:38;;;;;;;6.03;3.20;;;;;;;-148.56;100.00;61375.16;5040421;28;20048;-47
2021/01/03 01:31:04;;;;;;;8.48;2.88;;;;;;;-148.56;100.00;61375.16;5041150;28;20067;-42
2021/01/03 01:33:30;;;;;;;6.72;2.97;;;;;;;-148.56;100.00;61375.16;5044050;28;20033;-45
2021/01/03 01:35:55;;;;;;;6.40;2.78;;;;;;;-148.56;100.00;61375.16;5042950;28;20492;-43
2021/01/03 01:38:21;;;;;;;4.90;2.65;;;;;;;-148.56;100.00;61375.16;5039836;28;20037;-42
2021/01/03 01:40:47;;;;;;;7.03;3.00;;;;;;;-148.56;100.00;61375.16;5041302;28;20033;-43
2021/01/03 01:43:14;;;;;;;10.10;3.03;;;;;;;-148.56;100.00;61375.16;5046202;28;20048;-44
2021/01/03 01:45:41;;;;;;;6.00;2.97;;;;;;;-148.56;100.00;61375.16;5039709;28;20584;-43
2021/01/03 01:48:17;;;;;;;5.70;2.83;;;;;;;-148.56;100.00;61375.16;5035682;28;20091;-43
2021/01/03 01:50:53;;;;;;;6.32;3.03;;;;;;;-148.56;100.00;61375.16;5056992;28;20032;-44
2021/01/03 01:53:43;;;;;;;6.38;2.83;;;;;;;-148.56;100.00;61375.16;5055361;28;20037;-42
2021/01/03 01:56:09;;;;;;;6.63;2.88;;;;;;;-148.56;100.00;61375.16;5037322;28;20037;-45
2021/01/03 01:58:51;;;;;;;6.45;3.13;;;;;;;-148.56;100.00;61375.16;5042198;28;20032;-39
2021/01/03 02:01:19;;;;;;;7.55;2.55;;;;;;;-148.56;100.00;61375.16;5041382;28;20098;-46
2021/01/03 02:03:59;;;;;;;4.32;2.45;;;;;;;-148.56;100.00;61375.16;5058896;28;22600;-44
2021/01/03 02:06:30;;;;;;;4.18;2.20;;;;;;;-148.56;100.00;61375.16;5037017;28;20066;-45
2021/01/03 02:09:01;;;;;;;6.45;2.70;;;;;;;-148.56;100.00;61375.16;5023317;28;20078;-42
2021/01/03 02:11:27;;;;;;;5.40;2.60;;;;;;;-148.56;100.00;61375.16;5055556;28;20043;-44
2021/01/03 02:13:54;;;;;;;4.88;2.38;;;;;;;-148.56;100.00;61375.16;5034045;28;20803;-45
2021/01/03 02:16:26;;;;;;;3.78;2.00;;;;;;;-148.56;100.00;61375.16;5036819;28;20041;-47
2021/01/03 02:18:52;;;;;;;;;;;;;;;-148.56;100.00;61375.16;5035591;28;20136;-44
2021/01/03 02:21:29;;;;;;;5.35;2.67;;;;;;;-148.56;100.00;61375.16;5037519;28;20122;-46
2021/01/03 02:24:28;;;;;;;6.63;2.53;;;;;;;-148.56;100.00;61375.16;5039466;28;20020;-46
2021/01/03 02:26:59;;;;;;;4.97;2.63;;;;;;;-148.56;100.00;61375.16;5032203;28;20052;-47
2021/01/03 02:29:25;;;;;;;5.45;2.30;;;;;;;-148.56;100.00;61375.16;5039016;28;20047;-42
2021/01/03 02:31:55;;;;;;;7.35;2.47;;;;;;;-148.56;100.00;61375.16;5021564;28;20052;-48
2021/01/03 02:34:31;;;;;;;4.97;2.40;;;;;;;-148.56;100.00;61375.16;5035311;28;20032;-50
2021/01/03 02:37:09;;;;;;;3.33;1.90;;;;;;;-148.56;100.00;61375.16;5039707;28;20024;-45
2021/01/03 02:39:55;;;;;;;3.78;2.22;;;;;;;-148.56;100.00;61375.16;5042796;28;20032;-44
2021/01/03 02:42:33;;;;;;;4.65;2.20;;;;;;;-148.56;100.00;61375.16;5042452;28;20029;-45
2021/01/03 02:44:59;;;;;;;4.07;2.20;;;;;;;-148.56;100.00;61375.16;5043385;28;20178;-44
2021/01/03 02:47:28;;;;;;;6.03;2.25;;;;;;;-148.56;100.00;61375.16;5043943;28;20136;-45
2021/01/03 02:49:53;;;;;;;3.67;2.20;;;;;;;-148.56;100.00;61375.16;5024809;28;20037;-43
2021/01/03 02:52:23;;;;;;;4.55;2.08;;;;;;;-148.56;100.00;61375.16;5040624;28;20099;-45
2021/01/03 02:54:50;;;;;;;3.97;2.25;;;;;;;-148.56;100.00;61375.16;5015091;28;20056;-45
2021/01/03 02:57:16;;;;;;;4.68;1.95;;;;;;;-148.56;100.00;61375.16;5035111;28;20038;-47
2021/01/03 02:59:42;;;;;;;5.50;2.20;;;;;;;-148.56;100.00;61375.16;5039251;28;20547;-45
2021/01/03 03:02:08;;;;;;;3.33;2.17;;;;;;;-148.56;100.00;61375.16;5042269;28;20033;-48
2021/01/03 03:04:33;;;;;;;3.70;2.28;;;;;;;-148.56;100.00;61375.16;5040544;28;20099;-45
2021/01/03 03:06:59;;;;;;;4.07;2.08;;;;;;;-148.56;100.00;61375.16;5037630;28;20045;-46
2021/01/03 03:09:25;;;;;;;4.40;2.30;;;;;;;-148.56;100.00;61375.16;5039448;28;20040;-47
2021/01/03 03:11:50;;;;;;;5.35;1.83;;;;;;;-148.56;100.00;61375.16;5049753;28;20037;-45
2021/01/03 03:14:16;;;;;;;2.22;1.52;;;;;;;-148.56;100.00;61375.16;5043774;28;20044;-46
2021/01/03 03:16:42;;;;;;;3.35;1.80;;;;;;;-148.56;100.00;61375.16;5038961;28;20044;-43
2021/01/03 03:19:07;;;;;;;2.75;1.73;;;;;;;-148.56;100.00;61375.16;5041312;28;20606;-47
2021/01/03 03:21:33;;;;;;;2.90;1.95;;;;;;;-148.56;100.00;61375.16;5042307;28;20171;-44
2021/01/03 03:23:59;;;;;;;3.70;1.77;;;;;;;-148.56;100.00;61375.16;5034221;28;20037;-42
2021/01/03 03:26:25;;;;;;;4.72;1.88;;;;;;;-148.56;100.00;61375.16;5038590;28;20563;-44
2021/01/03 03:28:50;;;;;;;4.00;2.13;;;;;;;-148.56;100.00;61375.16;5042295;28;20056;-45
2021/01/03 03:31:15;;;;;;;3.45;1.90;;;;;;;-148.56;100.00;61375.16;5041662;28;20060;-45
2021/01/03 03:33:41;;;;;;;3.28;1.90;;;;;;;-148.56;100.00;61375.16;5036733;28;20044;-44
2021/01/03 03:36:07;;;;;;;3.35;1.98;;;;;;;-148.56;100.00;61375.16;5038580;28;20037;-46
2021/01/03 03:38:33;;;;;;;2.17;1.60;;;;;;;-148.56;100.00;61375.16;5036176;28;20043;-45
2021/01/03 03:40:59;;;;;;;3.15;1.75;;;;;;;-148.56;100.00;61375.16;5038615;28;20446;-44
2021/01/03 03:43:24;;;;;;;3.40;1.90;;;;;;;-148.56;100.00;61375.16;5041993;28;20133;-44
2021/01/03 03:45:50;;;;;;;2.42;1.70;;;;;;;-148.56;100.00;61375.16;5045052;28;20439;-46
2021/01/03 03:48:16;;;;;;;2.75;1.67;;;;;;;-148.56;100.00;61375.16;5043396;28;20074;-46
2021/01/03 03:50:42;;;;;;;4.38;1.60;;;;;;;-148.56;100.00;61375.16;5044697;28;20080;-46
2021/01/03 03:53:07;;;;;;;3.53;2.00;;;;;;;-148.56;100.00;61375.16;5045664;28;20404;-45
2021/01/03 03:55:33;;;;;;;3.08;1.60;;;;;;;-148.56;100.00;61375.16;5041545;28;20040;-45
2021/01/03 03:57:59;;;;;;;4.18;2.10;;;;;;;-148.56;100.00;61375.16;5044271;28;20080;-40
2021/01/03 04:00:24;;;;;;;3.75;1.88;;;;;;;-148.56;100.00;61375.16;5040838;28;20048;-43
2021/01/03 04:02:50;;;;;;;4.30;1.70;;;;;;;-148.56;100.00;61375.16;5039521;28;20049;-46
2021/01/03 04:05:23;;;;;;;2.80;1.60;;;;;;;-148.56;100.00;61375.16;5033041;28;20044;-45
2021/01/03 04:07:48;;;;;;;2.80;1.42;;;;;;;-148.56;100.00;61375.16;5043350;28;20043;-48
2021/01/03 04:10:14;;;;;;;1.98;1.15;;;;;;;-148.56;100.00;61375.16;5039363;28;20041;-44
2021/01/03 04:12:40;;;;;;;2.47;1.40;;;;;;;-148.56;100.00;61375.16;5035995;28;20032;-44
2021/01/03 04:15:09;;;;;;;2.30;1.48;;;;;;;-148.56;100.00;61375.16;5042655;28;20591;-44
2021/01/03 04:17:35;;;;;;;2.63;1.50;;;;;;;-148.56;100.00;61375.16;5040125;28;20060;-43
2021/01/03 04:20:01;;;;;;;3.03;1.58;;;;;;;-148.56;100.00;61375.16;5043362;28;20500;-47
2021/01/03 04:22:29;;;;;;;1.95;1.42;;;;;;;-148.56;100.00;61375.16;5044309;28;20066;-49
2021/01/03 04:24:57;;;;;;;4.65;1.95;;;;;;;-148.56;100.00;61375.16;5043157;28;20048;-45
2021/01/03 04:27:23;;;;;;;3.38;2.13;;;;;;;-148.56;100.00;61375.16;5042296;28;20037;-43
2021/01/03 04:29:49;;;;;;;3.47;1.77;;;;;;;-148.56;100.00;61375.16;5045515;28;20542;-44
2021/01/03 04:32:15;;;;;;;2.95;1.60;;;;;;;-148.56;100.00;61375.16;5040064;28;20110;-48
2021/01/03 04:34:42;;;;;;;2.85;1.60;;;;;;;-148.56;100.00;61375.16;5042703;28;20439;-44
2021/01/03 04:37:07;;;;;;;2.28;1.48;;;;;;;-148.56;100.00;61375.16;5054211;28;20095;-45
2021/01/03 04:39:33;;;;;;;2.72;1.60;;;;;;;-148.56;100.00;61375.16;5043498;28;20033;-46
2021/01/03 04:42:06;;;;;;;2.55;1.33;;;;;;;-148.56;100.00;61375.16;5040253;28;20040;-45
2021/01/03 04:44:35;;;;;;;2.75;1.30;;;;;;;-148.56;100.00;61375.16;5042439;28;20118;-45
2021/01/03 04:47:23;;;;;;;1.83;1.40;;;;;;;-148.56;100.00;61375.16;5043351;28;20060;-42
2021/01/03 04:50:16;;;;;;;2.28;1.30;;;;;;;-148.56;100.00;61375.16;5042517;28;20041;-44
2021/01/03 04:52:53;;;;;;;3.17;1.40;;;;;;;-148.56;100.00;61375.16;5037846;28;20064;-43
2021/01/03 04:55:23;;;;;;;1.90;1.30;;;;;;;-148.56;100.00;61375.16;5038422;28;20033;-45
2021/01/03 04:58:11;;;;;;;2.03;1.20;;;;;;;-148.56;100.00;61375.16;5037161;28;20618;-48
2021/01/03 05:00:47;;;;;;;2.83;1.20;;;;;;;-148.56;100.00;61375.16;5054115;28;21182;-43
2021/01/03 05:03:21;;;;;;;1.80;1.02;;;;;;;-148.56;100.00;61375.16;5035756;28;20792;-46
2021/01/03 05:05:48;;;;;;;2.25;1.30;;;;;;;-148.56;100.00;61375.16;5036098;28;20106;-49
2021/01/03 05:08:14;;;;;;;1.70;1.10;;;;;;;-148.56;100.00;61375.16;5042229;28;20061;-43
2021/01/03 05:10:39;;;;;;;1.83;1.40;;;;;;;-148.56;100.00;61375.16;5043416;28;20079;-46
2021/01/03 05:13:21;;;;;;;2.20;1.20;;;;;;;-148.56;100.00;61375.16;5039158;28;20064;-40
2021/01/03 05:15:47;;;;;;;1.30;1.13;;;;;;;-148.56;100.00;61375.16;5037991;28;20037;-45
2021/01/03 05:18:13;;;;;;;1.88;1.30;;;;;;;-148.56;100.00;61375.16;5043565;28;20131;-44
2021/01/03 05:20:39;;;;;;;2.10;1.30;;;;;;;-148.56;100.00;61375.16;5044362;28;20055;-44
2021/01/03 05:23:18;;;;;;;2.28;1.25;;;;;;;-148.56;100.00;61375.16;5042229;28;20045;-44
2021/01/03 05:25:44;;;;;;;1.85;1.10;;;;;;;-148.56;100.00;61375.16;5051690;28;20041;-42
2021/01/03 05:28:19;;;;;;;1.40;1.10;;;;;;;-148.56;100.00;61375.16;5057215;28;20102;-47
2021/01/03 05:30:45;;;;;;;2.05;1.20;;;;;;;-148.56;100.00;61375.16;5051702;28;20048;-44
2021/01/03 05:33:12;;;;;;;1.88;1.20;;;;;;;-148.56;100.00;61375.16;5046630;28;20568;-46
2021/01/03 05:35:40;;;;;;;2.90;0.88;;;;;;;-148.56;100.00;61375.16;5040960;28;20029;-44
2021/01/03 05:38:06;;;;;;;2.15;1.40;;;;;;;-148.56;100.00;61375.16;5039601;28;20055;-37
2021/01/03 05:40:31;;;;;;;2.22;1.30;;;;;;;-148.56;100.00;61375.16;5047105;28;20045;-44
2021/01/03 05:43:19;;;;;;;2.00;1.13;;;;;;;-148.56;100.00;61375.16;5040389;28;20040;-43
2021/01/03 05:45:54;;;;;;;1.33;0.90;;;;;;;-148.56;100.00;61375.16;5051295;28;20037;-45
2021/01/03 05:48:22;;;;;;;3.05;1.50;;;;;;;-148.56;100.00;61375.16;5044505;28;20044;-44
2021/01/03 05:50:47;;;;;;;2.28;1.20;;;;;;;-148.56;100.00;61375.16;5035878;28;20036;-44
2021/01/03 05:53:24;;;;;;;2.85;0.90;;;;;;;-148.56;100.00;61375.16;5039551;28;20059;-43
2021/01/03 05:55:55;;;;;;;3.45;1.38;;;;;;;-148.56;100.00;61375.16;5048526;28;20033;-44
2021/01/03 05:58:32;;;;;;;1.95;1.00;;;;;;;-148.56;100.00;61375.16;5040548;28;20504;-43
2021/01/03 06:01:14;;;;;;;1.50;1.08;;;;;;;-148.56;100.00;61375.16;5030241;28;20045;-44
2021/01/03 06:03:40;;;;;;;2.10;1.15;;;;;;;-148.56;100.00;61375.16;5038185;28;20033;-43
2021/01/03 06:06:17;;;;;;;3.00;1.55;;;;;;;-148.56;100.00;61375.16;5031558;28;20045;-46
2021/01/03 06:08:42;;;;;;;1.95;1.08;;;;;;;-148.56;100.00;61375.16;5041409;28;20029;-45
2021/01/03 06:11:18;;;;;;;1.25;1.10;;;;;;;-148.56;100.00;61375.16;5034933;28;20040;-45
2021/01/03 06:13:49;;;;;;;1.08;0.95;;;;;;;-148.56;100.00;61375.16;5039661;28;20051;-46
2021/01/03 06:16:15;;;;;;;2.03;1.10;;;;;;;-148.56;100.00;61375.16;5037476;28;20033;-45
2021/01/03 06:18:50;;;;;;;1.25;0.93;;;;;;;-148.56;100.00;61375.16;5037619;28;20052;-44
2021/01/03 06:21:26;;;;;;;1.83;1.17;;;;;;;-148.56;100.00;61375.16;5037372;28;20048;-45
2021/01/03 06:24:14;;;;;;;1.98;1.25;;;;;;;-148.56;100.00;61375.16;5041581;28;20040;-46
2021/01/03 06:26:42;;;;;;;1.52;1.20;;;;;;;-148.56;100.00;61375.16;5040322;28;20044;-42
2021/01/03 06:29:37;;;;;;;1.63;1.10;;;;;;;-148.56;100.00;61375.16;5040825;28;20033;-44
2021/01/03 06:32:28;;;;;;;5.10;1.13;;;;;;;-148.56;100.00;61375.16;5037418;28;20045;-45
2021/01/03 06:34:53;;;;;;;1.70;1.10;;;;;;;-148.56;100.00;61375.16;5034834;28;20063;-46
2021/01/03 06:37:34;;;;;;;1.20;1.00;;;;;;;-148.56;100.00;61375.16;5042380;28;20029;-43
2021/01/03 06:40:32;;;;;;;1.80;1.03;;;;;;;-148.56;100.00;61375.16;5054575;28;20102;-44
2021/01/03 06:43:22;;;;;;;1.40;0.82;;;;;;;-148.56;100.00;61375.16;5034204;28;20334;-44
2021/01/03 06:46:08;;;;;;;1.27;0.82;;;;;;;-148.56;100.00;61375.16;5035278;28;20072;-44
2021/01/03 06:48:57;;;;;;;3.22;1.00;;;;;;;-148.56;100.00;61375.16;5040493;28;20041;-45
2021/01/03 06:51:34;;;;;;;1.60;0.90;;;;;;;-148.56;100.00;61375.16;5040614;28;20553;-46
2021/01/03 06:54:37;;;;;;;3.22;1.02;;;;;;;-148.56;100.00;61375.16;5041661;28;20479;-45
2021/01/03 06:57:27;;;;;;;1.27;0.90;;;;;;;-148.56;100.00;61375.16;5033946;28;20073;-42
2021/01/03 06:59:57;;;;;;;1.92;0.95;;;;;;;-148.56;100.00;61375.16;5043327;28;20021;-45
2021/01/03 07:02:23;;;;;;;1.70;1.05;;;;;;;-148.56;100.00;61375.16;5034080;28;20075;-43
2021/01/03 07:04:48;;;;;;;1.10;0.90;;;;;;;-148.56;100.00;61375.16;5054362;28;20040;-45
2021/01/03 07:07:17;;;;;;;2.05;1.10;;;;;;;-148.56;100.00;61375.16;5040105;28;20037;-46
2021/01/03 07:10:07;;;;;;;1.38;1.17;;;;;;;-148.56;100.00;61375.16;5050134;28;20036;-44
2021/01/03 07:12:44;;;;;;;1.35;0.88;;;;;;;-148.56;100.00;61375.16;5042470;28;20071;-43
2021/01/03 07:15:22;;;;;;;1.83;0.80;;;;;;;-148.56;100.00;61375.16;5031182;28;20037;-45
2021/01/03 07:17:56;;;;;;;1.67;1.02;;;;;;;-148.56;100.00;61375.16;5039912;28;20048;-45
2021/01/03 07:20:47;;;;;;;0.82;0.70;;;;;;;-148.56;100.00;61375.16;5040143;28;20028;-42
2021/01/03 07:23:27;;;;;;;1.60;1.00;;;;;;;-148.56;100.00;61375.16;5047614;28;20287;-43
2021/01/03 07:26:01;;;;;;;0.90;0.77;;;;;;;-148.56;100.00;61375.16;5050075;28;20040;-45
2021/01/03 07:28:31;;;;;;;3.88;1.30;;;;;;;-148.56;100.00;61375.16;5038447;28;20044;-43
2021/01/03 07:31:05;;;;;;;4.97;1.25;;;;;;;-148.56;100.00;61375.16;5040975;28;20466;-45
2021/01/03 07:33:46;;;;;;;4.15;1.10;;;;;;;-148.56;100.00;61375.16;5056451;28;20119;-44
2021/01/03 07:36:38;;;;;;;7.82;1.30;;;;;;;-148.56;100.00;61375.16;5038630;28;20075;-46
2021/01/03 07:39:31;;;;;;;3.20;0.90;;;;;;;-148.56;100.00;61375.16;5055775;28;20029;-44
2021/01/03 07:42:17;;;;;;;9.48;1.40;;;;;;;-148.56;100.00;61375.16;5040692;28;20088;-46
2021/01/03 07:44:43;;;;;;;4.30;1.40;;;;;;;-148.56;100.00;61375.16;5049763;28;20037;-46
2021/01/03 07:47:08;;;;;;;2.13;1.30;;;;;;;-148.56;100.00;61375.16;5035698;28;20072;-46
2021/01/03 07:49:46;;;;;;;6.38;2.45;;;;;;;-148.56;100.00;61375.16;5035805;28;20577;-45
2021/01/03 07:52:18;;;;;;;7.63;2.10;;;;;;;-148.56;100.00;61375.16;5036316;28;20045;-47
2021/01/03 07:54:50;;;;;;;3.90;1.45;;;;;;;-148.56;100.00;61375.16;5033568;28;20125;-44
2021/01/03 07:57:16;;;;;;;2.55;1.25;;;;;;;-148.56;100.00;61375.16;5033722;28;20036;-43
2021/01/03 07:59:46;;;;;;;3.05;1.30;;;;;;;-148.56;100.00;61375.16;5035810;28;21121;-44
2021/01/03 08:02:12;;;;;;;2.17;1.50;;;;;;;-148.56;100.00;61375.16;5037968;28;20055;-45
2021/01/03 08:04:37;;;;;;;4.82;1.42;;;;;;;-148.56;100.00;61375.16;5046924;28;20041;-44
2021/01/03 08:07:10;;;;;;;2.00;1.20;;;;;;;-148.56;100.00;61375.16;5037611;28;20633;-43
2021/01/03 08:09:36;;;;;;;5.88;1.60;;;;;;;-148.56;100.00;61375.16;5033377;28;20078;-43
2021/01/03 08:12:31;;;;;;;1.52;1.10;;;;;;;-148.56;100.00;61375.16;5031009;28;20044;-46
2021/01/03 08:15:05;;;;;;;3.13;1.30;;;;;;;-148.56;100.00;61375.16;5045681;28;20790;-46
2021/01/03 08:17:35;;;;;;;2.50;1.50;;;;;;;-148.56;100.00;61375.16;5009093;28;20128;-44
2021/01/03 08:20:04;;;;;;;4.85;1.50;;;;;;;-148.56;100.00;61375.16;5011390;28;20037;-44
2021/01/03 08:22:30;;;;;;;3.55;1.30;;;;;;;-148.56;100.00;61375.16;5013835;28;20037;-45
2021/01/03 08:24:58;;;;;;;4.88;1.20;;;;;;;-148.56;100.00;61375.16;5015214;28;20044;-45
2021/01/03 08:27:39;;;;;;;1.50;1.10;;;;;;;-148.56;100.00;61375.16;5016820;28;20083;-44
2021/01/03 08:30:09;;;;;;;2.22;1.10;;;;;;;-148.56;100.00;61375.16;4995860;28;20036;-45
2021/01/03 08:32:35;;;;;;;1.15;0.98;;;;;;;-148.56;100.00;61375.16;5035641;28;20052;-44
2021/01/03 08:35:04;;;;;;;4.68;1.30;;;;;;;-148.56;100.00;61375.16;5034253;28;20029;-46
2021/01/03 08:37:35;;;;;;;1.98;1.00;;;;;;;-148.56;100.00;61375.16;5051995;28;20072;-41
2021/01/03 08:40:31;;;;;;;1.52;0.90;;;;;;;-148.56;100.00;61375.16;5037927;28;20036;-46
2021/01/03 08:43:04;;;;;;;3.50;0.98;;;;;;;-148.56;100.00;61375.16;5047983;28;20025;-46
2021/01/03 08:45:33;;;;;;;1.73;0.80;;;;;;;-148.56;100.00;61375.16;5050557;28;20037;-40
2021/01/03 08:48:00;;;;;;;2.03;1.10;;;;;;;-148.56;100.00;61375.16;5050262;28;20087;-47
2021/01/03 08:50:28;;;;;;;5.18;0.93;;;;;;;-148.56;100.00;61375.16;5032886;28;20884;-42
2021/01/03 08:53:20;;;;;;;3.35;1.00;;;;;;;-148.56;100.00;61375.16;5039479;28;20037;-47
2021/01/03 08:55:46;;;;;;;1.85;1.02;;;;;;;-148.56;100.00;61375.16;5035363;28;20492;-43
2021/01/03 08:58:15;;;;;;;2.50;0.85;;;;;;;-148.56;100.00;61375.16;5037852;28;20056;-44
2021/01/03 09:00:42;;;;;;;0.82;0.80;;;;;;;-148.56;100.00;61375.16;5035720;28;20035;-43
2021/01/03 09:03:16;;;;;;;3.22;1.20;;;;;;;-148.56;100.00;61375.16;5036420;28;20041;-45
2021/01/03 09:05:41;;;;;;;1.90;1.33;;;;;;;-148.56;100.00;61375.16;5032569;28;20075;-47
2021/01/03 09:08:12;;;;;;;4.00;1.23;;;;;;;-148.56;100.00;61375.16;5050062;28;20048;-40
2021/01/03 09:10:41;;;;;;;4.03;1.33;;;;;;;-148.56;100.00;61375.16;5038326;28;20023;-45
2021/01/03 09:13:12;;;;;;;2.45;1.10;;;;;;;-148.56;100.00;61375.16;5052752;28;20044;-41
2021/01/03 09:15:39;;;;;;;2.17;0.98;;;;;;;-148.56;100.00;61375.16;5041239;28;20071;-46
2021/01/03 09:18:52;;;;;;;2.65;1.15;;;;;;;-148.56;100.00;61375.16;5017811;28;20032;-39
2021/01/03 09:21:17;;;;;;;4.03;1.17;;;;;;;-148.56;100.00;61375.16;5031790;28;20044;-47
2021/01/03 09:23:43;;;;;;;7.13;3.92;;;;;;;-148.56;100.00;61375.16;5043685;28;20036;-46
2021/01/03 09:26:09;;;;;;;5.10;4.60;;;;;;;-148.56;100.00;61375.16;5042393;28;20051;-43
2021/01/03 09:28:56;;;;;;;5.00;4.53;;;;;;;-148.56;100.00;61375.16;5039391;28;20037;-44
2021/01/03 09:31:24;;;;;;;5.20;4.70;;;;;;;-148.56;100.00;61375.16;5037817;28;20033;-44
2021/01/03 09:33:52;;;;;;;6.28;4.72;;;;;;;-148.56;100.00;61375.16;5034241;28;20555;-42
2021/01/03 09:36:45;;;;;;;5.55;4.65;;;;;;;-148.56;100.00;61375.16;5029815;28;20148;-43
2021/01/03 09:39:29;;;;;;;4.88;3.25;;;;;;;-148.56;100.00;61375.16;5032175;28;20040;-45
2021/01/03 09:42:20;;;;;;;3.58;3.00;;;;;;;-148.56;100.00;61375.16;5031622;28;20094;-47
2021/01/03 09:45:03;;;;;;;5.13;3.08;;;;;;;-148.56;100.00;61375.16;5029794;28;20035;-46
2021/01/03 09:47:36;;;;;;;4.68;2.88;;;;;;;-148.56;100.00;61375.16;5031456;28;20041;-45
2021/01/03 09:50:12;;;;;;;3.53;2.47;;;;;;;-148.56;100.00;61375.16;5031764;28;20113;-44
2021/01/03 09:52:44;;;;;;;3.88;2.40;;;;;;;-148.56;100.00;61375.16;5045357;28;20052;-47
2021/01/03 09:55:12;;;;;;;;;;;;;;;-148.56;100.00;61375.16;5029414;28;20114;-46
2021/01/03 09:57:53;;;;;;;18.27;2.63;;;;;;;-148.56;100.00;61375.16;5047091;28;19969;-47
2021/01/03 10:00:21;;;;;;;3.22;2.30;;;;;;;-148.56;100.00;61375.16;5032475;28;20148;-47
2021/01/03 10:02:46;;;;;;;2.97;2.50;;;;;;;-148.56;100.00;61375.16;5034888;28;20111;-44
2021/01/03 10:05:25;;;;;;;5.22;2.40;;;;;;;-148.56;100.00;61375.16;5037383;28;20462;-45
2021/01/03 10:08:00;;;;;;;7.82;1.98;;;;;;;-148.56;100.00;61375.16;5037061;28;20052;-45
2021/01/03 10:10:46;;;;;;;7.60;2.40;;;;;;;-148.56;100.00;61375.16;5037817;28;20017;-48
2021/01/03 10:13:11;;;;;;;4.88;2.20;;;;;;;-148.56;100.00;61375.16;5038093;28;20392;-44
2021/01/03 10:15:38;;;;;;;4.45;2.53;;;;;;;-148.56;100.00;61375.16;5044021;28;20112;-47
2021/01/03 10:18:09;;;;;;;58.38;5.47;;;;;;;-148.56;100.00;61375.16;5039521;28;20387;-46
2021/01/03 10:20:39;;;;;;;37.75;5.90;;;;;;;-148.56;100.00;61375.16;5040303;28;20041;-43
2021/01/03 10:23:05;;;;;;;38.08;6.78;;;;;;;-148.56;100.00;61375.16;5045780;28;20437;-42
2021/01/03 10:25:31;;;;;;;43.50;5.38;;;;;;;-148.56;100.00;61375.16;5045567;28;20644;-45
2021/01/03 10:28:11;;;;;;;37.20;5.60;;;;;;;-148.56;100.00;61375.16;5044058;28;20037;-45
2021/01/03 10:30:37;;;;;;;20.45;5.03;;;;;;;-148.56;100.00;61375.16;5041195;28;20057;-44
2021/01/03 10:33:04;;;;;;;18.80;4.75;;;;;;;-148.56;100.00;61375.16;5048394;28;20029;-44
2021/01/03 10:35:30;;;;;;;20.05;4.65;;;;;;;-148.56;100.00;61375.16;5045025;28;20056;-44
2021/01/03 10:37:55;;;;;;;35.40;5.32;;;;;;;-148.56;100.00;61375.16;5036886;28;20061;-44
2021/01/03 10:40:21;;;;;;;21.17;4.20;;;;;;;-148.56;100.00;61375.16;5045849;28;20040;-43
2021/01/03 10:42:48;;;;;;;25.92;4.93;;;;;;;-148.56;100.00;61375.16;5044815;28;20029;-46
2021/01/03 10:45:15;;;;;;;14.48;3.90;;;;;;;-148.56;100.00;61375.16;5044524;28;20028;-43
2021/01/03 10:47:41;;;;;;;15.13;5.70;;;;;;;-148.56;100.00;61375.16;5046802;28;20033;-46
2021/01/03 10:50:07;;;;;;;15.27;4.07;;;;;;;-148.56;100.00;61375.16;5046292;28;20037;-47
2021/01/03 10:52:33;;;;;;;13.63;4.55;;;;;;;-148.56;100.00;61375.16;5046853;28;20543;-44
2021/01/03 10:54:58;;;;;;;18.25;3.85;;;;;;;-148.56;100.00;61375.16;5039660;28;20043;-44
2021/01/03 10:57:23;;;;;;;13.85;3.83;;;;;;;-148.56;100.00;61375.16;5043297;28;20041;-44
2021/01/03 10:59:49;;;;;;;12.25;3.55;;;;;;;-148.56;100.00;61375.16;5043240;28;20484;-44
2021/01/03 11:02:15;;;;;;;12.25;3.30;;;;;;;-148.56;100.00;61375.16;5046183;28;20120;-46
2021/01/03 11:04:40;;;;;;;13.07;3.30;;;;;;;-148.56;100.00;61375.16;5034677;28;20029;-40
2021/01/03 11:07:06;;;;;;;10.73;3.67;;;;;;;-148.56;100.00;61375.16;5046913;28;20033;-44
2021/01/03 11:09:32;;;;;;;10.77;3.33;;;;;;;-148.56;100.00;61375.16;5043918;28;20036;-45
2021/01/03 11:12:06;;;;;;;9.02;3.53;;;;;;;-148.56;100.00;61375.16;5041294;28;20032;-44
2021/01/03 11:14:32;;;;;;;8.98;3.58;;;;;;;-148.56;100.00;61375.16;5048934;28;20036;-44
2021/01/03 11:16:58;;;;;;;9.75;3.55;;;;;;;-148.56;100.00;61375.16;5050768;28;20036;-44
2021/01/03 11:19:23;;;;;;;8.73;2.83;;;;;;;-148.56;100.00;61375.16;5045705;28;20029;-45
2021/01/03 11:21:55;;;;;;;7.20;2.95;;;;;;;-148.56;100.00;61375.16;5040782;28;20033;-44
2021/01/03 11:24:21;;;;;;;7.35;2.65;;;;;;;-148.56;100.00;61375.16;5025919;28;20033;-45
2021/01/03 11:26:46;;;;;;;7.47;3.00;;;;;;;-148.56;100.00;61375.16;5039094;28;20040;-44